Notre-Dame-du-Portage, Canada
Current Conditions -  °F | °C
As of 10:06 PM on Monday 22 Dec 2014 (Local Time) from KFVE Reporting Station
Overcast Overcast  
Wind Chill: 15°   Ceiling: 800
Heat Index: 23°   Visibility: 10mi
Dew Point: 21°   Wind: 7mph
Humidity: 92%   Direction: 140°SE
Pressure: 30.34"   Gusts: NA
Location:  47.76°N, 69.61°W
Report Text: KFVE 230306Z AUTO 14006KT 10SM BKN008 OVC033 M05/M06 A3034 RMK AO2 T10501061
Loading
Personal Weather Stations






























Interactive Weather Map New forecast layout! Learn more

10-Day Weather Forecast

Advertisements
Track Severe Weather on mobile